sensor_id;sensor_type;location;lat;lon;timestamp;P1;durP1;ratioP1;P2;durP2;ratioP2
43540;SDS011;29549;40.386;-3.710;2024-01-30T00:07:26;22.35;;;14.27;;
43540;SDS011;29549;40.386;-3.710;2024-01-30T00:17:27;20.75;;;15.18;;
43540;SDS011;29549;40.386;-3.710;2024-01-30T00:27:28;21.52;;;14.70;;
43540;SDS011;29549;40.386;-3.710;2024-01-30T00:37:29;24.08;;;15.25;;
43540;SDS011;29549;40.386;-3.710;2024-01-30T00:47:29;21.95;;;15.15;;
43540;SDS011;29549;40.386;-3.710;2024-01-30T00:57:33;22.48;;;14.95;;
43540;SDS011;29549;40.386;-3.710;2024-01-30T01:07:34;24.42;;;15.00;;
43540;SDS011;29549;40.386;-3.710;2024-01-30T01:17:35;18.58;;;14.57;;
43540;SDS011;29549;40.386;-3.710;2024-01-30T01:27:37;24.48;;;14.30;;
43540;SDS011;29549;40.386;-3.710;2024-01-30T01:37:41;23.05;;;14.93;;
43540;SDS011;29549;40.386;-3.710;2024-01-30T01:47:42;23.10;;;14.23;;
43540;SDS011;29549;40.386;-3.710;2024-01-30T01:57:43;22.83;;;14.57;;
43540;SDS011;29549;40.386;-3.710;2024-01-30T02:07:45;17.50;;;11.18;;
43540;SDS011;29549;40.386;-3.710;2024-01-30T02:17:46;15.15;;;9.70;;
43540;SDS011;29549;40.386;-3.710;2024-01-30T02:27:47;16.48;;;9.68;;
43540;SDS011;29549;40.386;-3.710;2024-01-30T02:37:48;14.30;;;9.75;;
43540;SDS011;29549;40.386;-3.710;2024-01-30T02:47:49;14.23;;;8.48;;
43540;SDS011;29549;40.386;-3.710;2024-01-30T02:57:51;14.45;;;8.52;;
43540;SDS011;29549;40.386;-3.710;2024-01-30T03:07:52;13.75;;;8.73;;
43540;SDS011;29549;40.386;-3.710;2024-01-30T03:17:53;19.33;;;10.18;;
43540;SDS011;29549;40.386;-3.710;2024-01-30T03:27:54;13.98;;;8.95;;
43540;SDS011;29549;40.386;-3.710;2024-01-30T03:37:55;17.02;;;9.80;;
43540;SDS011;29549;40.386;-3.710;2024-01-30T03:47:56;16.23;;;9.45;;
43540;SDS011;29549;40.386;-3.710;2024-01-30T03:57:57;13.70;;;8.43;;
43540;SDS011;29549;40.386;-3.710;2024-01-30T04:07:58;15.85;;;9.57;;
43540;SDS011;29549;40.386;-3.710;2024-01-30T04:17:59;13.95;;;9.07;;
43540;SDS011;29549;40.386;-3.710;2024-01-30T04:28:01;12.40;;;8.70;;
43540;SDS011;29549;40.386;-3.710;2024-01-30T04:38:02;20.27;;;8.85;;
43540;SDS011;29549;40.386;-3.710;2024-01-30T04:48:03;17.45;;;11.30;;
43540;SDS011;29549;40.386;-3.710;2024-01-30T04:58:06;16.55;;;10.15;;
43540;SDS011;29549;40.386;-3.710;2024-01-30T05:08:10;15.90;;;9.55;;
43540;SDS011;29549;40.386;-3.710;2024-01-30T05:18:13;16.17;;;10.30;;
43540;SDS011;29549;40.386;-3.710;2024-01-30T05:28:16;25.60;;;15.13;;
43540;SDS011;29549;40.386;-3.710;2024-01-30T05:38:18;18.50;;;12.40;;
43540;SDS011;29549;40.386;-3.710;2024-01-30T05:48:21;21.50;;;12.35;;
43540;SDS011;29549;40.386;-3.710;2024-01-30T05:58:24;19.00;;;11.73;;
43540;SDS011;29549;40.386;-3.710;2024-01-30T06:08:26;19.15;;;12.13;;
43540;SDS011;29549;40.386;-3.710;2024-01-30T06:18:28;21.35;;;12.45;;
43540;SDS011;29549;40.386;-3.710;2024-01-30T06:28:31;18.20;;;11.52;;
43540;SDS011;29549;40.386;-3.710;2024-01-30T06:38:32;19.30;;;12.32;;
43540;SDS011;29549;40.386;-3.710;2024-01-30T06:48:34;21.25;;;13.60;;
43540;SDS011;29549;40.386;-3.710;2024-01-30T06:58:36;18.33;;;12.90;;
43540;SDS011;29549;40.386;-3.710;2024-01-30T07:08:37;21.40;;;14.25;;
43540;SDS011;29549;40.386;-3.710;2024-01-30T07:18:41;26.90;;;13.77;;
43540;SDS011;29549;40.386;-3.710;2024-01-30T07:28:44;20.13;;;13.45;;
43540;SDS011;29549;40.386;-3.710;2024-01-30T07:38:46;28.27;;;13.65;;
43540;SDS011;29549;40.386;-3.710;2024-01-30T07:48:49;25.60;;;14.50;;
43540;SDS011;29549;40.386;-3.710;2024-01-30T07:58:53;24.23;;;14.98;;
43540;SDS011;29549;40.386;-3.710;2024-01-30T08:08:56;27.13;;;14.75;;
43540;SDS011;29549;40.386;-3.710;2024-01-30T08:19:01;29.17;;;15.57;;
43540;SDS011;29549;40.386;-3.710;2024-01-30T08:29:04;22.67;;;16.20;;
43540;SDS011;29549;40.386;-3.710;2024-01-30T08:39:06;25.90;;;16.63;;
43540;SDS011;29549;40.386;-3.710;2024-01-30T08:49:09;26.98;;;16.52;;
43540;SDS011;29549;40.386;-3.710;2024-01-30T08:59:12;25.95;;;18.55;;
43540;SDS011;29549;40.386;-3.710;2024-01-30T09:09:15;28.33;;;16.58;;
43540;SDS011;29549;40.386;-3.710;2024-01-30T09:19:19;33.15;;;16.80;;
43540;SDS011;29549;40.386;-3.710;2024-01-30T09:29:22;35.28;;;19.92;;
43540;SDS011;29549;40.386;-3.710;2024-01-30T09:39:26;31.43;;;21.13;;
43540;SDS011;29549;40.386;-3.710;2024-01-30T09:49:27;40.65;;;24.40;;
43540;SDS011;29549;40.386;-3.710;2024-01-30T09:59:29;41.00;;;24.35;;
43540;SDS011;29549;40.386;-3.710;2024-01-30T10:09:32;25.88;;;15.68;;
43540;SDS011;29549;40.386;-3.710;2024-01-30T10:19:37;31.45;;;21.67;;
43540;SDS011;29549;40.386;-3.710;2024-01-30T10:29:43;29.35;;;20.52;;
43540;SDS011;29549;40.386;-3.710;2024-01-30T10:39:46;29.27;;;19.15;;
43540;SDS011;29549;40.386;-3.710;2024-01-30T10:49:47;31.02;;;19.45;;
43540;SDS011;29549;40.386;-3.710;2024-01-30T10:59:51;35.35;;;22.27;;
43540;SDS011;29549;40.386;-3.710;2024-01-30T11:09:59;34.23;;;21.77;;
43540;SDS011;29549;40.386;-3.710;2024-01-30T11:20:04;32.10;;;21.20;;
43540;SDS011;29549;40.386;-3.710;2024-01-30T11:30:10;31.67;;;22.05;;
43540;SDS011;29549;40.386;-3.710;2024-01-30T11:40:11;29.15;;;20.70;;
43540;SDS011;29549;40.386;-3.710;2024-01-30T11:50:13;30.45;;;21.10;;
43540;SDS011;29549;40.386;-3.710;2024-01-30T12:00:15;34.15;;;22.17;;
43540;SDS011;29549;40.386;-3.710;2024-01-30T12:10:17;29.35;;;21.15;;
43540;SDS011;29549;40.386;-3.710;2024-01-30T12:20:21;25.73;;;20.00;;
43540;SDS011;29549;40.386;-3.710;2024-01-30T12:30:22;31.67;;;21.63;;
43540;SDS011;29549;40.386;-3.710;2024-01-30T12:40:25;32.50;;;21.30;;
43540;SDS011;29549;40.386;-3.710;2024-01-30T12:50:27;30.15;;;22.67;;
43540;SDS011;29549;40.386;-3.710;2024-01-30T13:00:29;30.23;;;20.98;;
43540;SDS011;29549;40.386;-3.710;2024-01-30T13:10:32;33.90;;;25.25;;
43540;SDS011;29549;40.386;-3.710;2024-01-30T13:20:35;33.95;;;24.33;;
43540;SDS011;29549;40.386;-3.710;2024-01-30T13:30:38;34.78;;;24.35;;
43540;SDS011;29549;40.386;-3.710;2024-01-30T13:40:42;32.42;;;26.58;;
43540;SDS011;29549;40.386;-3.710;2024-01-30T13:50:45;37.88;;;25.77;;
43540;SDS011;29549;40.386;-3.710;2024-01-30T14:00:48;34.05;;;23.85;;
43540;SDS011;29549;40.386;-3.710;2024-01-30T14:10:51;34.42;;;24.30;;
43540;SDS011;29549;40.386;-3.710;2024-01-30T14:20:52;35.35;;;25.45;;
43540;SDS011;29549;40.386;-3.710;2024-01-30T14:30:56;35.33;;;26.30;;
43540;SDS011;29549;40.386;-3.710;2024-01-30T14:40:59;36.08;;;27.77;;
43540;SDS011;29549;40.386;-3.710;2024-01-30T14:51:00;34.53;;;27.25;;
43540;SDS011;29549;40.386;-3.710;2024-01-30T15:01:03;37.00;;;25.75;;
43540;SDS011;29549;40.386;-3.710;2024-01-30T15:11:06;35.42;;;24.77;;
43540;SDS011;29549;40.386;-3.710;2024-01-30T15:21:08;30.13;;;21.98;;
43540;SDS011;29549;40.386;-3.710;2024-01-30T15:31:10;36.63;;;25.25;;
43540;SDS011;29549;40.386;-3.710;2024-01-30T15:41:12;42.45;;;27.15;;
43540;SDS011;29549;40.386;-3.710;2024-01-30T15:51:14;45.40;;;28.58;;
43540;SDS011;29549;40.386;-3.710;2024-01-30T16:11:21;38.42;;;26.20;;
43540;SDS011;29549;40.386;-3.710;2024-01-30T16:21:23;39.70;;;26.38;;
43540;SDS011;29549;40.386;-3.710;2024-01-30T16:31:24;39.47;;;26.42;;
43540;SDS011;29549;40.386;-3.710;2024-01-30T16:41:27;33.67;;;26.45;;
43540;SDS011;29549;40.386;-3.710;2024-01-30T16:51:28;34.65;;;24.42;;
43540;SDS011;29549;40.386;-3.710;2024-01-30T17:01:31;32.85;;;22.45;;
43540;SDS011;29549;40.386;-3.710;2024-01-30T17:11:32;35.90;;;23.55;;
43540;SDS011;29549;40.386;-3.710;2024-01-30T17:21:34;31.13;;;20.85;;
43540;SDS011;29549;40.386;-3.710;2024-01-30T17:31:38;29.77;;;21.88;;
43540;SDS011;29549;40.386;-3.710;2024-01-30T17:41:41;47.72;;;29.48;;
43540;SDS011;29549;40.386;-3.710;2024-01-30T17:51:44;51.65;;;32.42;;
43540;SDS011;29549;40.386;-3.710;2024-01-30T18:01:48;42.33;;;26.50;;
43540;SDS011;29549;40.386;-3.710;2024-01-30T18:11:49;36.40;;;23.17;;
43540;SDS011;29549;40.386;-3.710;2024-01-30T18:21:52;52.88;;;33.85;;
43540;SDS011;29549;40.386;-3.710;2024-01-30T18:31:55;53.40;;;28.75;;
43540;SDS011;29549;40.386;-3.710;2024-01-30T18:41:58;38.58;;;24.10;;
43540;SDS011;29549;40.386;-3.710;2024-01-30T18:52:01;36.35;;;23.65;;
43540;SDS011;29549;40.386;-3.710;2024-01-30T19:02:05;39.13;;;23.03;;
43540;SDS011;29549;40.386;-3.710;2024-01-30T19:12:08;51.78;;;24.98;;
43540;SDS011;29549;40.386;-3.710;2024-01-30T19:22:11;36.75;;;22.60;;
43540;SDS011;29549;40.386;-3.710;2024-01-30T19:32:13;34.72;;;22.38;;
43540;SDS011;29549;40.386;-3.710;2024-01-30T19:42:17;44.70;;;27.00;;
43540;SDS011;29549;40.386;-3.710;2024-01-30T19:52:18;46.00;;;28.23;;
43540;SDS011;29549;40.386;-3.710;2024-01-30T20:02:21;47.55;;;29.88;;
43540;SDS011;29549;40.386;-3.710;2024-01-30T20:12:25;41.75;;;25.77;;
43540;SDS011;29549;40.386;-3.710;2024-01-30T20:22:26;42.20;;;24.17;;
43540;SDS011;29549;40.386;-3.710;2024-01-30T20:32:28;46.97;;;24.05;;
43540;SDS011;29549;40.386;-3.710;2024-01-30T20:42:31;69.82;;;49.17;;
43540;SDS011;29549;40.386;-3.710;2024-01-30T20:52:34;58.00;;;35.22;;
43540;SDS011;29549;40.386;-3.710;2024-01-30T21:02:35;42.88;;;29.55;;
43540;SDS011;29549;40.386;-3.710;2024-01-30T21:12:37;51.45;;;29.23;;
43540;SDS011;29549;40.386;-3.710;2024-01-30T21:22:38;45.38;;;27.80;;
43540;SDS011;29549;40.386;-3.710;2024-01-30T21:32:40;44.33;;;27.33;;
43540;SDS011;29549;40.386;-3.710;2024-01-30T21:42:41;42.83;;;26.95;;
43540;SDS011;29549;40.386;-3.710;2024-01-30T21:52:42;41.88;;;27.08;;
43540;SDS011;29549;40.386;-3.710;2024-01-30T22:02:44;43.67;;;24.48;;
43540;SDS011;29549;40.386;-3.710;2024-01-30T22:12:45;37.42;;;25.27;;
43540;SDS011;29549;40.386;-3.710;2024-01-30T22:22:47;37.58;;;25.13;;
43540;SDS011;29549;40.386;-3.710;2024-01-30T22:32:47;42.25;;;25.80;;
43540;SDS011;29549;40.386;-3.710;2024-01-30T22:42:48;37.97;;;23.90;;
43540;SDS011;29549;40.386;-3.710;2024-01-30T22:52:50;40.15;;;23.40;;
43540;SDS011;29549;40.386;-3.710;2024-01-30T23:02:53;33.42;;;21.67;;
43540;SDS011;29549;40.386;-3.710;2024-01-30T23:12:56;36.50;;;25.70;;
43540;SDS011;29549;40.386;-3.710;2024-01-30T23:22:58;35.47;;;24.05;;
43540;SDS011;29549;40.386;-3.710;2024-01-30T23:32:59;38.92;;;25.17;;
43540;SDS011;29549;40.386;-3.710;2024-01-30T23:43:00;34.22;;;22.98;;
43540;SDS011;29549;40.386;-3.710;2024-01-30T23:53:02;35.97;;;23.40;;
